createdAt,value
2023-09-08T00:00:10.336Z,20.87
2023-09-08T00:02:37.678Z,20.44
2023-09-08T00:05:04.944Z,20.52
2023-09-08T00:07:32.246Z,20.52
2023-09-08T00:09:59.405Z,20.62
2023-09-08T00:12:26.686Z,20.50
2023-09-08T00:14:53.864Z,20.48
2023-09-08T00:17:21.112Z,20.52
2023-09-08T00:19:48.266Z,20.62
2023-09-08T00:22:15.507Z,20.51
2023-09-08T00:24:42.637Z,20.57
2023-09-08T00:27:10.845Z,20.50
2023-09-08T00:29:37.960Z,20.53
2023-09-08T00:32:05.307Z,20.71
2023-09-08T00:34:32.476Z,20.33
2023-09-08T00:37:01.581Z,20.70
2023-09-08T00:39:28.858Z,20.77
2023-09-08T00:41:56.145Z,20.27
2023-09-08T00:44:23.400Z,20.45
2023-09-08T00:46:50.633Z,20.50
2023-09-08T00:49:18.072Z,20.32
2023-09-08T00:51:45.486Z,20.47
2023-09-08T00:54:12.753Z,20.32
2023-09-08T00:56:40.180Z,20.16
2023-09-08T00:59:08.676Z,20.55
2023-09-08T01:01:35.991Z,20.14
2023-09-08T01:04:03.849Z,20.22
2023-09-08T01:06:33.931Z,20.22
2023-09-08T01:09:01.391Z,20.22
2023-09-08T01:11:28.888Z,20.28
2023-09-08T01:13:56.138Z,20.47
2023-09-08T01:16:23.548Z,20.36
2023-09-08T01:18:52.070Z,20.29
2023-09-08T01:21:35.200Z,20.52
2023-09-08T01:24:05.545Z,20.40
2023-09-08T01:26:36.827Z,20.55
2023-09-08T01:29:04.795Z,20.39
2023-09-08T01:31:34.352Z,20.41
2023-09-08T01:34:02.675Z,20.60
2023-09-08T01:36:29.789Z,20.42
2023-09-08T01:38:56.984Z,20.51
2023-09-08T01:41:26.636Z,20.30
2023-09-08T01:43:53.872Z,20.67
2023-09-08T01:46:21.100Z,20.78
2023-09-08T01:48:48.388Z,20.73
2023-09-08T01:51:15.645Z,20.80
2023-09-08T01:53:42.792Z,20.79
2023-09-08T01:56:11.121Z,20.66
2023-09-08T01:58:38.594Z,20.91
2023-09-08T02:01:07.083Z,20.88
2023-09-08T02:03:35.977Z,21.01
2023-09-08T02:06:03.235Z,21.12
2023-09-08T02:08:30.433Z,21.08
2023-09-08T02:10:57.531Z,21.04
2023-09-08T02:13:24.761Z,20.94
2023-09-08T02:15:52.486Z,20.73
2023-09-08T02:18:19.855Z,20.60
2023-09-08T02:20:47.076Z,20.60
2023-09-08T02:23:14.405Z,20.82
2023-09-08T02:25:41.536Z,20.70
2023-09-08T02:28:08.812Z,20.59
2023-09-08T02:30:36.803Z,20.82
2023-09-08T02:33:04.323Z,20.70
2023-09-08T02:35:31.670Z,20.67
2023-09-08T02:38:00.401Z,20.51
2023-09-08T02:40:28.715Z,20.61
2023-09-08T02:42:55.968Z,20.50
2023-09-08T02:45:23.499Z,20.32
2023-09-08T02:47:51.092Z,20.50
2023-09-08T02:50:18.309Z,20.15
2023-09-08T02:52:46.319Z,20.12
2023-09-08T02:55:13.801Z,20.23
2023-09-08T02:57:40.987Z,20.29
2023-09-08T03:00:08.726Z,20.43
2023-09-08T03:02:36.057Z,20.31
2023-09-08T03:05:03.553Z,20.29
2023-09-08T03:07:31.421Z,20.25
2023-09-08T03:09:59.009Z,20.26
2023-09-08T03:12:26.157Z,20.21
2023-09-08T03:14:53.407Z,20.00
2023-09-08T03:17:20.662Z,20.26
2023-09-08T03:19:48.037Z,20.38
2023-09-08T03:22:15.371Z,19.97
2023-09-08T03:24:42.616Z,19.77
2023-09-08T03:27:09.829Z,19.97
2023-09-08T03:29:37.828Z,19.87
2023-09-08T03:32:05.390Z,19.83
2023-09-08T03:34:33.404Z,19.87
2023-09-08T03:37:01.893Z,19.96
2023-09-08T03:39:29.188Z,19.96
2023-09-08T03:41:56.369Z,19.76
2023-09-08T03:44:23.853Z,19.77
2023-09-08T03:46:51.346Z,19.87
2023-09-08T03:49:19.717Z,19.87
2023-09-08T03:51:46.886Z,19.86
2023-09-08T03:54:14.232Z,19.98
2023-09-08T03:56:41.354Z,19.85
2023-09-08T03:59:18.061Z,19.94
2023-09-08T04:01:45.345Z,19.84
2023-09-08T04:04:12.554Z,19.73
2023-09-08T04:06:39.905Z,19.64
2023-09-08T04:09:07.132Z,19.95
2023-09-08T04:11:34.414Z,19.90
2023-09-08T04:14:01.624Z,19.95
2023-09-08T04:16:29.489Z,20.09
2023-09-08T04:18:57.037Z,20.00
2023-09-08T04:21:26.221Z,20.00
2023-09-08T04:23:53.534Z,19.94
2023-09-08T04:26:20.840Z,19.94
2023-09-08T04:28:48.426Z,19.92
2023-09-08T04:31:15.887Z,19.92
2023-09-08T04:33:43.530Z,19.92
2023-09-08T04:36:12.303Z,19.99
2023-09-08T04:38:39.699Z,20.03
2023-09-08T04:41:06.844Z,20.01
2023-09-08T04:43:34.301Z,19.89
2023-09-08T04:46:04.084Z,19.85
2023-09-08T04:48:32.070Z,19.55
2023-09-08T04:50:59.589Z,19.54
2023-09-08T04:53:27.433Z,19.47
2023-09-08T04:55:54.756Z,19.50
2023-09-08T04:58:22.152Z,19.64
2023-09-08T05:00:50.479Z,19.72
2023-09-08T05:03:17.851Z,19.60
2023-09-08T05:05:45.972Z,19.72
2023-09-08T05:08:13.746Z,19.79
2023-09-08T05:10:40.935Z,19.83
2023-09-08T05:13:14.080Z,19.77
2023-09-08T05:15:49.958Z,19.73
2023-09-08T05:18:17.445Z,19.70
2023-09-08T05:20:44.786Z,19.85
2023-09-08T05:23:11.985Z,19.90
2023-09-08T05:25:39.202Z,19.96
2023-09-08T05:28:06.525Z,20.09
2023-09-08T05:30:33.851Z,20.03
2023-09-08T05:33:01.209Z,20.02
2023-09-08T05:35:32.289Z,19.85
2023-09-08T05:38:01.045Z,19.80
2023-09-08T05:40:28.155Z,19.85
2023-09-08T05:42:55.689Z,20.14
2023-09-08T05:45:23.628Z,20.12
2023-09-08T05:47:52.034Z,20.16
2023-09-08T05:50:19.850Z,20.10
2023-09-08T05:52:47.290Z,20.16
2023-09-08T05:55:14.609Z,20.24
2023-09-08T05:57:41.936Z,20.26
2023-09-08T06:00:10.018Z,20.24
2023-09-08T06:02:53.576Z,20.30
2023-09-08T06:05:27.356Z,20.37
2023-09-08T06:08:06.593Z,20.46
2023-09-08T06:10:37.148Z,20.46
2023-09-08T06:13:04.622Z,20.62
2023-09-08T06:15:31.795Z,20.41
2023-09-08T06:17:59.157Z,20.25
2023-09-08T06:20:27.976Z,20.37
2023-09-08T06:22:55.632Z,20.38
2023-09-08T06:25:22.953Z,20.47
2023-09-08T06:27:58.615Z,20.56
2023-09-08T06:30:36.089Z,20.67
2023-09-08T06:33:05.401Z,21.01
2023-09-08T06:35:41.172Z,21.11
2023-09-08T06:38:11.051Z,21.57
2023-09-08T06:40:43.351Z,21.86
2023-09-08T06:43:10.622Z,21.73
2023-09-08T06:45:48.360Z,21.45
2023-09-08T06:48:15.983Z,21.69
2023-09-08T06:50:43.237Z,21.84
2023-09-08T06:53:11.779Z,22.08
2023-09-08T06:55:40.034Z,22.12
2023-09-08T06:58:08.725Z,22.82
2023-09-08T07:00:36.032Z,23.61
2023-09-08T07:03:05.106Z,24.12
2023-09-08T07:05:32.566Z,24.22
2023-09-08T07:07:59.869Z,24.52
2023-09-08T07:10:27.636Z,25.23
2023-09-08T07:12:55.009Z,24.90
2023-09-08T07:15:22.292Z,24.95
2023-09-08T07:17:49.680Z,25.75
2023-09-08T07:20:16.937Z,25.52
2023-09-08T07:22:44.164Z,25.67
2023-09-08T07:25:11.355Z,25.92
2023-09-08T07:27:38.752Z,26.48
2023-09-08T07:30:07.480Z,26.91
2023-09-08T07:32:35.686Z,26.95
2023-09-08T07:35:03.360Z,27.85
2023-09-08T07:37:30.984Z,28.06
2023-09-08T07:39:59.117Z,28.93
2023-09-08T07:42:26.795Z,28.76
2023-09-08T07:44:54.985Z,28.82
2023-09-08T07:47:22.305Z,27.93
2023-09-08T07:49:49.764Z,28.41
2023-09-08T07:52:19.823Z,29.09
2023-09-08T07:54:47.062Z,28.97
2023-09-08T07:57:14.286Z,29.13
2023-09-08T07:59:41.692Z,29.25
2023-09-08T08:02:08.894Z,29.15
2023-09-08T08:04:36.310Z,29.55
2023-09-08T08:07:03.532Z,29.04
2023-09-08T08:09:30.720Z,29.53
2023-09-08T08:11:57.931Z,29.30
2023-09-08T08:14:25.200Z,29.74
2023-09-08T08:16:52.266Z,29.47
2023-09-08T08:19:19.463Z,29.38
2023-09-08T08:21:46.628Z,29.31
2023-09-08T08:24:13.976Z,29.38
2023-09-08T08:26:41.101Z,29.25
2023-09-08T08:29:08.316Z,29.27
2023-09-08T08:31:35.500Z,29.23
2023-09-08T08:34:02.665Z,29.14
2023-09-08T08:36:29.977Z,29.23
2023-09-08T08:38:57.173Z,29.05
2023-09-08T08:41:27.001Z,28.69
2023-09-08T08:43:54.694Z,28.81
2023-09-08T08:46:24.003Z,28.72
2023-09-08T08:48:55.395Z,28.45
2023-09-08T08:51:24.165Z,28.05
2023-09-08T08:53:51.349Z,28.17
2023-09-08T08:56:19.283Z,28.24
2023-09-08T08:58:46.659Z,28.19
2023-09-08T09:01:14.097Z,28.26
2023-09-08T09:03:41.511Z,28.61
2023-09-08T09:06:08.788Z,28.86
2023-09-08T09:08:36.633Z,28.78
2023-09-08T09:11:04.039Z,28.92
2023-09-08T09:13:31.575Z,29.16
2023-09-08T09:16:00.110Z,28.85
2023-09-08T09:18:31.448Z,28.80
2023-09-08T09:21:02.611Z,28.63
2023-09-08T09:23:34.618Z,29.08
2023-09-08T09:26:02.627Z,29.11
2023-09-08T09:28:31.563Z,29.24
2023-09-08T09:31:00.314Z,29.32
2023-09-08T09:33:29.240Z,29.44
2023-09-08T09:35:56.871Z,29.40
2023-09-08T09:38:28.088Z,29.41
2023-09-08T09:40:56.306Z,29.25
2023-09-08T09:43:24.210Z,29.39
2023-09-08T09:45:52.016Z,29.17
2023-09-08T09:48:21.873Z,29.42
2023-09-08T09:50:50.146Z,29.57
2023-09-08T09:53:18.370Z,29.36
2023-09-08T09:55:46.820Z,29.47
2023-09-08T09:58:15.572Z,29.49
2023-09-08T10:00:48.665Z,29.42
2023-09-08T10:03:18.133Z,29.63
2023-09-08T10:05:48.145Z,29.70
2023-09-08T10:08:15.423Z,29.41
2023-09-08T10:10:47.121Z,29.36
2023-09-08T10:13:19.071Z,29.40
2023-09-08T10:15:47.685Z,29.39
2023-09-08T10:18:17.745Z,29.72
2023-09-08T10:20:45.998Z,29.76
2023-09-08T10:23:17.665Z,29.83
2023-09-08T10:25:54.273Z,30.02
2023-09-08T10:28:25.813Z,29.97
2023-09-08T10:30:54.442Z,30.10
2023-09-08T10:33:25.053Z,29.74
2023-09-08T10:35:53.546Z,29.73
2023-09-08T10:38:35.348Z,29.86
2023-09-08T10:41:29.905Z,30.06
2023-09-08T10:43:59.605Z,29.98
2023-09-08T10:46:28.765Z,30.03
2023-09-08T10:49:03.652Z,30.00
2023-09-08T10:51:31.552Z,29.84
2023-09-08T10:53:59.409Z,30.20
2023-09-08T10:56:54.773Z,30.29
2023-09-08T10:59:28.801Z,30.04
2023-09-08T11:01:56.681Z,30.08
2023-09-08T11:05:43.509Z,29.78
2023-09-08T11:07:39.660Z,30.09
2023-09-08T11:10:08.346Z,30.17
2023-09-08T11:12:35.958Z,30.27
2023-09-08T11:15:06.382Z,30.27
2023-09-08T11:20:46.793Z,30.59
2023-09-08T11:23:14.668Z,30.42
2023-09-08T11:25:44.815Z,30.57
2023-09-08T11:28:14.243Z,30.37
2023-09-08T11:30:53.287Z,30.49
2023-09-08T11:33:34.898Z,30.36
2023-09-08T11:36:03.050Z,30.54
2023-09-08T11:38:32.895Z,30.66
2023-09-08T11:41:04.320Z,30.43
2023-09-08T11:43:46.775Z,30.43
2023-09-08T11:46:16.342Z,30.40
2023-09-08T11:48:44.753Z,30.16
2023-09-08T11:51:12.130Z,30.06
2023-09-08T11:53:42.601Z,30.38
2023-09-08T11:56:10.763Z,30.56
2023-09-08T11:58:38.894Z,30.50
2023-09-08T12:01:07.210Z,30.58
2023-09-08T12:03:35.056Z,30.55
2023-09-08T12:06:03.705Z,30.79
2023-09-08T12:08:31.876Z,30.72
2023-09-08T12:11:00.015Z,30.88
2023-09-08T12:13:27.888Z,30.77
2023-09-08T12:15:55.906Z,30.90
2023-09-08T12:21:56.869Z,30.81
2023-09-08T12:24:50.346Z,30.89
2023-09-08T12:27:19.878Z,31.07
2023-09-08T12:29:55.411Z,30.91
2023-09-08T12:32:26.846Z,30.89
2023-09-08T12:34:56.417Z,30.94
2023-09-08T12:37:30.231Z,31.00
2023-09-08T12:39:58.108Z,30.95
2023-09-08T12:42:31.898Z,31.12
2023-09-08T12:45:11.887Z,30.70
2023-09-08T12:47:40.547Z,30.45
2023-09-08T12:50:08.971Z,30.64
2023-09-08T12:52:36.754Z,30.58
2023-09-08T12:55:05.193Z,30.80
2023-09-08T12:57:40.602Z,30.85
2023-09-08T13:00:09.144Z,30.97
2023-09-08T13:02:37.134Z,30.90
2023-09-08T13:05:05.448Z,31.07
2023-09-08T13:07:33.645Z,31.21
2023-09-08T13:10:05.903Z,31.08
2023-09-08T13:13:02.336Z,31.19
2023-09-08T13:15:30.640Z,31.25
2023-09-08T13:17:58.258Z,30.95
2023-09-08T13:20:26.040Z,31.21
2023-09-08T13:22:53.530Z,30.98
2023-09-08T13:25:29.610Z,30.85
2023-09-08T13:27:57.206Z,30.95
2023-09-08T13:30:27.823Z,31.07
2023-09-08T13:32:57.035Z,30.91
2023-09-08T13:35:27.667Z,31.14
2023-09-08T13:37:55.136Z,31.07
2023-09-08T13:40:23.828Z,31.12
2023-09-08T13:42:54.458Z,31.16
2023-09-08T13:45:22.162Z,31.20
2023-09-08T13:47:50.613Z,31.21
2023-09-08T13:50:18.521Z,30.99
2023-09-08T13:52:47.761Z,31.32
2023-09-08T13:57:49.733Z,31.01
2023-09-08T14:00:24.074Z,31.24
2023-09-08T14:02:57.831Z,31.51
2023-09-08T14:05:28.431Z,31.16
2023-09-08T14:08:08.442Z,30.70
2023-09-08T14:10:53.181Z,30.79
2023-09-08T14:13:31.979Z,31.12
2023-09-08T14:16:02.527Z,30.76
2023-09-08T14:18:31.429Z,30.90
2023-09-08T14:20:58.834Z,30.78
2023-09-08T14:23:27.091Z,31.06
2023-09-08T14:25:54.860Z,31.00
2023-09-08T14:28:22.547Z,30.89
2023-09-08T14:30:54.510Z,30.85
2023-09-08T14:33:22.004Z,31.11
2023-09-08T14:35:52.643Z,31.25
2023-09-08T14:38:20.321Z,30.90
2023-09-08T14:40:57.663Z,31.09
2023-09-08T14:43:28.415Z,31.29
2023-09-08T14:46:11.164Z,31.11
2023-09-08T14:48:38.742Z,31.13
2023-09-08T14:51:06.276Z,31.26
2023-09-08T14:53:33.756Z,31.19
2023-09-08T14:56:01.342Z,31.32
2023-09-08T14:58:33.001Z,31.32
2023-09-08T15:01:10.202Z,31.20
2023-09-08T15:03:38.102Z,31.24
2023-09-08T15:06:05.744Z,31.28
2023-09-08T15:08:34.546Z,31.28
2023-09-08T15:11:02.036Z,31.15
2023-09-08T15:13:29.420Z,30.76
2023-09-08T15:15:58.969Z,30.70
2023-09-08T15:18:29.372Z,30.62
2023-09-08T15:20:57.415Z,30.55
2023-09-08T15:23:24.987Z,30.44
2023-09-08T15:25:56.535Z,30.39
2023-09-08T15:28:24.111Z,30.48
2023-09-08T15:30:52.598Z,30.59
2023-09-08T15:33:21.535Z,30.40
2023-09-08T15:35:49.303Z,30.19
2023-09-08T15:38:16.661Z,30.08
2023-09-08T15:41:02.796Z,30.24
2023-09-08T15:43:29.957Z,30.15
2023-09-08T15:45:57.098Z,30.16
2023-09-08T15:48:24.776Z,30.43
2023-09-08T15:50:52.065Z,30.51
2023-09-08T15:53:19.241Z,30.23
2023-09-08T15:55:46.582Z,30.13
2023-09-08T15:58:13.816Z,30.31
2023-09-08T16:00:41.683Z,30.45
2023-09-08T16:03:09.149Z,30.50
2023-09-08T16:05:36.306Z,30.49
2023-09-08T16:08:03.730Z,30.62
2023-09-08T16:10:31.149Z,30.72
2023-09-08T16:12:59.315Z,30.68
2023-09-08T16:15:26.475Z,30.60
2023-09-08T16:17:53.838Z,30.46
2023-09-08T16:20:22.868Z,30.45
2023-09-08T16:22:50.408Z,30.32
2023-09-08T16:25:17.767Z,30.10
2023-09-08T16:27:47.885Z,30.12
2023-09-08T16:30:15.439Z,30.04
2023-09-08T16:32:42.868Z,30.07
2023-09-08T16:35:10.149Z,30.09
2023-09-08T16:37:37.287Z,29.92
2023-09-08T16:40:04.748Z,30.04
2023-09-08T16:42:32.010Z,30.08
2023-09-08T16:44:59.155Z,30.05
2023-09-08T16:47:26.693Z,30.00
2023-09-08T16:49:54.929Z,29.90
2023-09-08T16:52:25.404Z,29.72
2023-09-08T16:54:52.937Z,29.45
2023-09-08T16:57:20.413Z,29.45
2023-09-08T16:59:48.196Z,29.29
2023-09-08T17:02:15.618Z,28.92
2023-09-08T17:04:45.298Z,28.96
2023-09-08T17:07:13.372Z,28.94
2023-09-08T17:09:48.621Z,28.78
2023-09-08T17:12:16.118Z,28.91
2023-09-08T17:14:43.696Z,28.67
2023-09-08T17:17:11.035Z,28.58
2023-09-08T17:19:38.292Z,28.53
2023-09-08T17:22:05.521Z,28.54
2023-09-08T17:24:32.756Z,28.43
2023-09-08T17:27:00.043Z,28.00
2023-09-08T17:29:27.395Z,28.07
2023-09-08T17:31:56.453Z,28.05
2023-09-08T17:34:24.159Z,27.73
2023-09-08T17:36:56.993Z,27.48
2023-09-08T17:39:24.757Z,27.48
2023-09-08T17:41:52.119Z,27.37
2023-09-08T17:44:19.583Z,27.04
2023-09-08T17:46:47.346Z,26.95
2023-09-08T17:49:14.857Z,26.61
2023-09-08T17:51:42.048Z,26.94
2023-09-08T17:54:09.355Z,26.44
2023-09-08T17:56:36.760Z,26.13
2023-09-08T17:59:04.220Z,26.18
2023-09-08T18:01:31.764Z,26.06
2023-09-08T18:04:00.625Z,25.98
2023-09-08T18:06:28.150Z,26.12
2023-09-08T18:08:55.637Z,26.18
2023-09-08T18:11:23.138Z,26.21
2023-09-08T18:13:56.869Z,26.50
2023-09-08T18:16:24.574Z,26.25
2023-09-08T18:18:52.003Z,26.22
2023-09-08T18:21:21.701Z,25.76
2023-09-08T18:23:49.223Z,25.76
2023-09-08T18:26:17.469Z,25.74
2023-09-08T18:28:45.478Z,25.90
2023-09-08T18:31:13.140Z,25.93
2023-09-08T18:33:41.397Z,25.99
2023-09-08T18:36:08.912Z,25.98
2023-09-08T18:38:36.375Z,25.84
2023-09-08T18:41:03.856Z,25.87
2023-09-08T18:43:31.360Z,25.65
2023-09-08T18:45:58.735Z,25.57
2023-09-08T18:48:26.555Z,25.92
2023-09-08T18:50:54.403Z,25.93
2023-09-08T18:53:21.834Z,25.79
2023-09-08T18:55:49.195Z,25.81
2023-09-08T18:58:16.745Z,25.86
2023-09-08T19:00:47.260Z,25.78
2023-09-08T19:03:15.240Z,25.85
2023-09-08T19:05:45.677Z,25.88
2023-09-08T19:08:15.024Z,25.83
2023-09-08T19:10:42.950Z,25.58
2023-09-08T19:13:10.617Z,25.59
2023-09-08T19:15:38.456Z,25.71
2023-09-08T19:18:06.345Z,25.66
2023-09-08T19:20:33.764Z,25.77
2023-09-08T19:23:01.599Z,25.60
2023-09-08T19:25:29.177Z,25.50
2023-09-08T19:27:57.585Z,25.52
2023-09-08T19:30:25.152Z,25.49
2023-09-08T19:32:52.602Z,25.56
2023-09-08T19:35:19.989Z,25.55
2023-09-08T19:37:47.851Z,25.42
2023-09-08T19:40:15.173Z,25.49
2023-09-08T19:42:42.829Z,25.27
2023-09-08T19:45:10.868Z,25.11
2023-09-08T19:47:39.003Z,24.96
2023-09-08T19:50:06.931Z,24.91
2023-09-08T19:52:34.321Z,25.03
2023-09-08T19:55:01.805Z,24.92
2023-09-08T19:57:29.237Z,24.84
2023-09-08T19:59:56.672Z,25.02
2023-09-08T20:02:24.050Z,24.99
2023-09-08T20:04:51.636Z,24.83
2023-09-08T20:07:18.990Z,24.74
2023-09-08T20:09:46.732Z,24.64
2023-09-08T20:12:16.959Z,24.80
2023-09-08T20:14:44.519Z,24.64
2023-09-08T20:17:11.981Z,24.77
2023-09-08T20:19:39.614Z,24.61
2023-09-08T20:22:07.060Z,24.71
2023-09-08T20:24:34.426Z,24.59
2023-09-08T20:27:02.148Z,24.59
2023-09-08T20:29:30.801Z,24.58
2023-09-08T20:31:58.518Z,24.59
2023-09-08T20:34:26.210Z,24.55
2023-09-08T20:36:53.662Z,24.66
2023-09-08T20:39:21.888Z,24.52
2023-09-08T20:41:50.116Z,24.44
2023-09-08T20:44:17.791Z,24.52
2023-09-08T20:46:47.499Z,24.39
2023-09-08T20:49:15.056Z,24.24
2023-09-08T20:51:42.510Z,24.21
2023-09-08T20:54:09.869Z,24.29
2023-09-08T20:56:38.660Z,24.26
2023-09-08T20:59:06.133Z,24.19
2023-09-08T21:01:33.580Z,24.32
2023-09-08T21:04:00.965Z,24.23
2023-09-08T21:06:28.367Z,24.31
2023-09-08T21:08:55.863Z,24.22
2023-09-08T21:11:23.275Z,24.12
2023-09-08T21:13:50.775Z,24.08
2023-09-08T21:16:18.149Z,24.02
2023-09-08T21:18:45.863Z,24.01
2023-09-08T21:21:13.183Z,23.89
2023-09-08T21:23:41.627Z,24.07
2023-09-08T21:26:10.465Z,24.01
2023-09-08T21:28:38.329Z,23.85
2023-09-08T21:31:08.624Z,24.03
2023-09-08T21:33:38.608Z,23.68
2023-09-08T21:36:08.229Z,23.73
2023-09-08T21:38:35.936Z,23.68
2023-09-08T21:41:11.068Z,23.72
2023-09-08T21:43:41.188Z,23.64
2023-09-08T21:46:09.947Z,23.75
2023-09-08T21:48:38.298Z,23.75
2023-09-08T21:51:06.389Z,23.69
2023-09-08T21:53:34.093Z,23.58
2023-09-08T21:56:01.964Z,23.65
2023-09-08T21:58:29.465Z,23.62
2023-09-08T22:00:58.537Z,23.65
2023-09-08T22:03:26.124Z,23.54
2023-09-08T22:05:53.686Z,23.59
2023-09-08T22:08:21.144Z,23.53
2023-09-08T22:10:51.904Z,23.45
2023-09-08T22:13:19.394Z,23.33
2023-09-08T22:15:46.885Z,23.38
2023-09-08T22:18:14.365Z,23.31
2023-09-08T22:20:42.415Z,23.34
2023-09-08T22:23:11.978Z,23.14
2023-09-08T22:25:39.799Z,23.02
2023-09-08T22:28:07.689Z,23.03
2023-09-08T22:30:35.281Z,22.91
2023-09-08T22:33:02.842Z,22.90
2023-09-08T22:35:30.734Z,22.89
2023-09-08T22:37:59.206Z,22.85
2023-09-08T22:40:26.652Z,22.61
2023-09-08T22:42:54.845Z,22.90
2023-09-08T22:45:22.434Z,22.80
2023-09-08T22:47:49.988Z,22.76
2023-09-08T22:50:17.804Z,22.89
2023-09-08T22:52:45.821Z,22.94
2023-09-08T22:55:25.296Z,22.91
2023-09-08T22:57:54.872Z,22.82
2023-09-08T23:00:24.599Z,22.59
2023-09-08T23:02:52.215Z,22.60
2023-09-08T23:05:20.033Z,22.66
2023-09-08T23:07:50.105Z,22.65
2023-09-08T23:10:17.857Z,22.59
2023-09-08T23:12:49.214Z,22.51
2023-09-08T23:15:16.723Z,22.33
2023-09-08T23:17:44.090Z,22.19
2023-09-08T23:20:16.276Z,22.25
2023-09-08T23:22:44.281Z,22.24
2023-09-08T23:25:11.695Z,21.99
2023-09-08T23:27:39.003Z,22.25
2023-09-08T23:30:07.061Z,22.11
2023-09-08T23:32:34.578Z,22.30
2023-09-08T23:35:01.912Z,22.27
2023-09-08T23:37:29.160Z,22.18
2023-09-08T23:39:56.316Z,21.84
2023-09-08T23:42:26.284Z,22.00
2023-09-08T23:44:53.584Z,22.11
2023-09-08T23:47:20.823Z,21.97
2023-09-08T23:49:48.114Z,21.85
2023-09-08T23:52:15.168Z,21.80
2023-09-08T23:54:42.350Z,22.07
2023-09-08T23:57:09.756Z,22.18
2023-09-08T23:59:36.922Z,22.17
